TAF Austria - 23 Oct 2017 - 0947 UTC - RocketRoute WX - rrwx.com
LOWG 230515Z 2306/2406 15004KT 9999 FEW060 BKN120 TX12/2314Z TN06/2306Z BECMG 2307/2309 33008KT TEMPO 2310/2316 32015G25KT BECMG 2316/2318 CAVOK LOWI 230515Z 2306/2406 08005KT 9999 -RA FEW005 SCT015 BKN030 TX09/2314Z TN05/2306Z TEMPO 2306/2308 FEW005 BKN009 PROB30 TEMPO 2306/2322 27007KT RA TEMPO 2403/2406 7000 NSW FEW002 BKN007 LOWK 230515Z 2306/2406 32006KT 9999 FEW050 BKN130 TX13/2313Z TN05/2306Z PROB30 TEMPO 2306/2307 0500 BCFG SCT002 TEMPO 2310/2316 34015G25KT BECMG 2317/2319 CAVOK LOWL 230515Z 2306/2406 27011KT 9999 FEW010 SCT020 BKN040 TX11/2312Z TN08/2405Z TEMPO 2306/2319 29015G25KT -SHRA FEW008 SCT012 BKN020 PROB30 TEMPO 2309/2315 29018G30KT TEMPO 2319/2406 29005KT 8000 -SHRA FEW006 BKN012 LOWS 230515Z 2306/2406 29007KT 9999 -RA FEW006 SCT030 BKN050 TX10/2313Z TN07/2306Z TEMPO 2306/2318 30015G25KT 6000 SHRA SCT014 BKN025 TEMPO 2318/2406 4000 RA SCT012 BKN020 LOWW 230515Z 2306/2412 32018KT 9999 -RA FEW030 BKN050 TX13/2412Z TN08/2307Z TEMPO 2306/2320 34025G35KT PROB40 TEMPO 2310/2315 SHRA BKN030 BECMG 2318/2320 NSW TEMPO 2409/2412 34020G30KT LOAN 230800Z 2309/2318 32012KT 9999 FEW030 BKN050 TEMPO 2309/2318 33015G30KT -SHRA FEW020 BKN035 LOXZ 230815Z 2309/2318 06006KT 9999 -SHRA SCT040 BKN050 TEMPO 2309/2316 30015G25KT SCT050 BKN250

RocketRoute WX - rrwx.com weather for pilots